sensor_id;sensor_type;location;lat;lon;timestamp;temperature;humidity
41395;DHT22;27136;53.810;8.886;2022-07-10T00:00:13;14.70;99.90
41395;DHT22;27136;53.810;8.886;2022-07-10T00:02:39;14.80;99.90
41395;DHT22;27136;53.810;8.886;2022-07-10T00:05:06;14.70;99.90
41395;DHT22;27136;53.810;8.886;2022-07-10T00:07:31;14.80;99.90
41395;DHT22;27136;53.810;8.886;2022-07-10T00:09:57;14.90;99.90
41395;DHT22;27136;53.810;8.886;2022-07-10T00:12:22;15.00;99.90
41395;DHT22;27136;53.810;8.886;2022-07-10T00:14:48;15.00;99.90
41395;DHT22;27136;53.810;8.886;2022-07-10T00:17:14;15.00;99.90
41395;DHT22;27136;53.810;8.886;2022-07-10T00:19:39;15.10;99.90
41395;DHT22;27136;53.810;8.886;2022-07-10T00:22:05;15.10;99.90
41395;DHT22;27136;53.810;8.886;2022-07-10T00:24:31;15.00;99.90
41395;DHT22;27136;53.810;8.886;2022-07-10T00:26:57;15.10;99.90
41395;DHT22;27136;53.810;8.886;2022-07-10T00:29:22;15.00;99.90
41395;DHT22;27136;53.810;8.886;2022-07-10T00:31:48;15.00;99.90
41395;DHT22;27136;53.810;8.886;2022-07-10T00:34:13;15.00;99.90
41395;DHT22;27136;53.810;8.886;2022-07-10T00:36:39;15.00;99.90
41395;DHT22;27136;53.810;8.886;2022-07-10T00:39:04;15.00;99.90
41395;DHT22;27136;53.810;8.886;2022-07-10T00:41:30;15.00;99.90
41395;DHT22;27136;53.810;8.886;2022-07-10T00:43:58;15.00;99.90
41395;DHT22;27136;53.810;8.886;2022-07-10T00:46:25;14.90;99.90
41395;DHT22;27136;53.810;8.886;2022-07-10T00:48:51;14.90;99.90
41395;DHT22;27136;53.810;8.886;2022-07-10T00:51:18;14.90;99.90
41395;DHT22;27136;53.810;8.886;2022-07-10T00:53:50;14.90;99.90
41395;DHT22;27136;53.810;8.886;2022-07-10T00:56:17;14.80;99.90
41395;DHT22;27136;53.810;8.886;2022-07-10T00:58:46;14.80;99.90
41395;DHT22;27136;53.810;8.886;2022-07-10T01:01:12;14.80;99.90
41395;DHT22;27136;53.810;8.886;2022-07-10T01:03:38;14.80;99.90
41395;DHT22;27136;53.810;8.886;2022-07-10T01:06:04;14.70;99.90
41395;DHT22;27136;53.810;8.886;2022-07-10T01:08:33;14.70;99.90
41395;DHT22;27136;53.810;8.886;2022-07-10T01:10:58;14.70;99.90
41395;DHT22;27136;53.810;8.886;2022-07-10T01:13:25;14.60;99.90
41395;DHT22;27136;53.810;8.886;2022-07-10T01:15:51;14.60;99.90
41395;DHT22;27136;53.810;8.886;2022-07-10T01:18:18;14.50;99.90
41395;DHT22;27136;53.810;8.886;2022-07-10T01:20:43;14.50;99.90
41395;DHT22;27136;53.810;8.886;2022-07-10T01:23:09;14.50;99.90
41395;DHT22;27136;53.810;8.886;2022-07-10T01:25:34;14.50;99.90
41395;DHT22;27136;53.810;8.886;2022-07-10T01:28:00;14.50;99.90
41395;DHT22;27136;53.810;8.886;2022-07-10T01:30:26;14.50;99.90
41395;DHT22;27136;53.810;8.886;2022-07-10T01:32:52;14.50;99.90
41395;DHT22;27136;53.810;8.886;2022-07-10T01:35:18;14.50;99.90
41395;DHT22;27136;53.810;8.886;2022-07-10T01:37:44;14.50;99.90
41395;DHT22;27136;53.810;8.886;2022-07-10T01:40:10;14.60;99.90
41395;DHT22;27136;53.810;8.886;2022-07-10T01:42:37;14.70;99.90
41395;DHT22;27136;53.810;8.886;2022-07-10T01:45:05;14.70;99.90
41395;DHT22;27136;53.810;8.886;2022-07-10T01:47:30;14.80;99.90
41395;DHT22;27136;53.810;8.886;2022-07-10T01:49:56;14.80;99.90
41395;DHT22;27136;53.810;8.886;2022-07-10T01:52:21;14.90;99.90
41395;DHT22;27136;53.810;8.886;2022-07-10T01:54:48;14.90;99.90
41395;DHT22;27136;53.810;8.886;2022-07-10T01:57:14;15.00;99.90
41395;DHT22;27136;53.810;8.886;2022-07-10T01:59:40;14.90;99.90
41395;DHT22;27136;53.810;8.886;2022-07-10T02:02:07;15.00;99.90
41395;DHT22;27136;53.810;8.886;2022-07-10T02:04:33;15.00;99.90
41395;DHT22;27136;53.810;8.886;2022-07-10T02:07:15;14.90;99.90
41395;DHT22;27136;53.810;8.886;2022-07-10T02:09:42;14.90;99.90
41395;DHT22;27136;53.810;8.886;2022-07-10T02:12:09;14.90;99.90
41395;DHT22;27136;53.810;8.886;2022-07-10T02:14:36;14.90;99.90
41395;DHT22;27136;53.810;8.886;2022-07-10T02:17:02;14.90;99.90
41395;DHT22;27136;53.810;8.886;2022-07-10T02:19:27;14.90;99.90
41395;DHT22;27136;53.810;8.886;2022-07-10T02:21:53;14.90;99.90
41395;DHT22;27136;53.810;8.886;2022-07-10T02:24:18;14.90;99.90
41395;DHT22;27136;53.810;8.886;2022-07-10T02:26:44;14.90;99.90
41395;DHT22;27136;53.810;8.886;2022-07-10T02:29:10;14.90;99.90
41395;DHT22;27136;53.810;8.886;2022-07-10T02:31:36;14.90;99.90
41395;DHT22;27136;53.810;8.886;2022-07-10T02:34:06;14.90;99.90
41395;DHT22;27136;53.810;8.886;2022-07-10T02:36:32;14.80;99.90
41395;DHT22;27136;53.810;8.886;2022-07-10T02:38:58;14.80;99.90
41395;DHT22;27136;53.810;8.886;2022-07-10T02:41:23;14.80;99.90
41395;DHT22;27136;53.810;8.886;2022-07-10T02:43:49;14.90;99.90
41395;DHT22;27136;53.810;8.886;2022-07-10T02:46:14;14.90;99.90
41395;DHT22;27136;53.810;8.886;2022-07-10T02:48:40;14.90;99.90
41395;DHT22;27136;53.810;8.886;2022-07-10T02:51:05;14.90;99.90
41395;DHT22;27136;53.810;8.886;2022-07-10T02:53:31;14.90;99.90
41395;DHT22;27136;53.810;8.886;2022-07-10T02:55:57;15.00;99.90
41395;DHT22;27136;53.810;8.886;2022-07-10T02:58:22;15.00;99.90
41395;DHT22;27136;53.810;8.886;2022-07-10T03:00:48;15.00;99.90
41395;DHT22;27136;53.810;8.886;2022-07-10T03:03:14;15.00;99.90
41395;DHT22;27136;53.810;8.886;2022-07-10T03:05:42;15.00;99.90
41395;DHT22;27136;53.810;8.886;2022-07-10T03:08:08;15.00;99.90
41395;DHT22;27136;53.810;8.886;2022-07-10T03:10:34;15.00;99.90
41395;DHT22;27136;53.810;8.886;2022-07-10T03:13:00;15.10;99.90
41395;DHT22;27136;53.810;8.886;2022-07-10T03:15:25;15.00;99.90
41395;DHT22;27136;53.810;8.886;2022-07-10T03:17:51;15.00;99.90
41395;DHT22;27136;53.810;8.886;2022-07-10T03:20:17;15.00;99.90
41395;DHT22;27136;53.810;8.886;2022-07-10T03:22:42;15.10;99.90
41395;DHT22;27136;53.810;8.886;2022-07-10T03:25:08;15.10;99.90
41395;DHT22;27136;53.810;8.886;2022-07-10T03:27:34;15.10;99.90
41395;DHT22;27136;53.810;8.886;2022-07-10T03:29:59;15.10;99.90
41395;DHT22;27136;53.810;8.886;2022-07-10T03:32:25;15.10;99.90
41395;DHT22;27136;53.810;8.886;2022-07-10T03:34:50;15.10;99.90
41395;DHT22;27136;53.810;8.886;2022-07-10T03:37:16;15.10;99.90
41395;DHT22;27136;53.810;8.886;2022-07-10T03:39:41;15.20;99.90
41395;DHT22;27136;53.810;8.886;2022-07-10T03:42:07;15.20;99.90
41395;DHT22;27136;53.810;8.886;2022-07-10T03:44:32;15.20;99.90
41395;DHT22;27136;53.810;8.886;2022-07-10T03:46:58;15.20;99.90
41395;DHT22;27136;53.810;8.886;2022-07-10T03:49:24;15.20;99.90
41395;DHT22;27136;53.810;8.886;2022-07-10T03:51:49;15.10;99.90
41395;DHT22;27136;53.810;8.886;2022-07-10T03:54:15;15.20;99.90
41395;DHT22;27136;53.810;8.886;2022-07-10T03:56:40;15.20;99.90
41395;DHT22;27136;53.810;8.886;2022-07-10T03:59:35;15.20;99.90
41395;DHT22;27136;53.810;8.886;2022-07-10T04:02:01;15.20;99.90
41395;DHT22;27136;53.810;8.886;2022-07-10T04:04:26;15.20;99.90
41395;DHT22;27136;53.810;8.886;2022-07-10T04:06:53;15.20;99.90
41395;DHT22;27136;53.810;8.886;2022-07-10T04:09:18;15.20;99.90
41395;DHT22;27136;53.810;8.886;2022-07-10T04:11:44;15.20;99.90
41395;DHT22;27136;53.810;8.886;2022-07-10T04:14:09;15.20;99.90
41395;DHT22;27136;53.810;8.886;2022-07-10T04:16:35;15.10;99.90
41395;DHT22;27136;53.810;8.886;2022-07-10T04:19:00;15.20;99.90
41395;DHT22;27136;53.810;8.886;2022-07-10T04:21:26;15.20;99.90
41395;DHT22;27136;53.810;8.886;2022-07-10T04:23:51;15.20;99.90
41395;DHT22;27136;53.810;8.886;2022-07-10T04:26:17;15.10;99.90
41395;DHT22;27136;53.810;8.886;2022-07-10T04:28:42;15.00;99.90
41395;DHT22;27136;53.810;8.886;2022-07-10T04:31:08;14.90;99.90
41395;DHT22;27136;53.810;8.886;2022-07-10T04:33:33;15.00;99.90
41395;DHT22;27136;53.810;8.886;2022-07-10T04:35:59;15.00;99.90
41395;DHT22;27136;53.810;8.886;2022-07-10T04:38:25;15.00;99.90
41395;DHT22;27136;53.810;8.886;2022-07-10T04:40:50;15.00;99.90
41395;DHT22;27136;53.810;8.886;2022-07-10T04:43:16;15.10;99.90
41395;DHT22;27136;53.810;8.886;2022-07-10T04:45:41;15.10;99.90
41395;DHT22;27136;53.810;8.886;2022-07-10T04:48:07;15.10;99.90
41395;DHT22;27136;53.810;8.886;2022-07-10T04:50:32;15.20;99.90
41395;DHT22;27136;53.810;8.886;2022-07-10T04:52:58;15.20;99.90
41395;DHT22;27136;53.810;8.886;2022-07-10T04:55:24;15.30;99.90
41395;DHT22;27136;53.810;8.886;2022-07-10T04:57:49;15.30;99.90
41395;DHT22;27136;53.810;8.886;2022-07-10T05:00:15;15.30;99.90
41395;DHT22;27136;53.810;8.886;2022-07-10T05:02:41;15.40;99.90
41395;DHT22;27136;53.810;8.886;2022-07-10T05:05:07;15.40;99.90
41395;DHT22;27136;53.810;8.886;2022-07-10T05:07:33;15.40;99.90
41395;DHT22;27136;53.810;8.886;2022-07-10T05:09:58;15.50;99.90
41395;DHT22;27136;53.810;8.886;2022-07-10T05:12:24;15.50;99.90
41395;DHT22;27136;53.810;8.886;2022-07-10T05:14:49;15.50;99.90
41395;DHT22;27136;53.810;8.886;2022-07-10T05:17:15;15.50;99.90
41395;DHT22;27136;53.810;8.886;2022-07-10T05:19:43;15.40;99.90
41395;DHT22;27136;53.810;8.886;2022-07-10T05:22:09;15.50;99.90
41395;DHT22;27136;53.810;8.886;2022-07-10T05:24:35;15.50;99.90
41395;DHT22;27136;53.810;8.886;2022-07-10T05:27:00;15.50;99.90
41395;DHT22;27136;53.810;8.886;2022-07-10T05:29:26;15.40;99.90
41395;DHT22;27136;53.810;8.886;2022-07-10T05:31:51;15.30;99.90
41395;DHT22;27136;53.810;8.886;2022-07-10T05:34:17;15.30;99.90
41395;DHT22;27136;53.810;8.886;2022-07-10T05:36:42;15.40;99.90
41395;DHT22;27136;53.810;8.886;2022-07-10T05:39:08;15.40;99.90
41395;DHT22;27136;53.810;8.886;2022-07-10T05:41:33;15.50;99.90
41395;DHT22;27136;53.810;8.886;2022-07-10T05:43:59;15.50;99.90
41395;DHT22;27136;53.810;8.886;2022-07-10T05:46:25;15.50;99.90
41395;DHT22;27136;53.810;8.886;2022-07-10T05:48:51;15.60;99.90
41395;DHT22;27136;53.810;8.886;2022-07-10T05:51:16;15.60;99.90
41395;DHT22;27136;53.810;8.886;2022-07-10T05:53:42;15.70;99.90
41395;DHT22;27136;53.810;8.886;2022-07-10T05:56:08;15.80;99.90
41395;DHT22;27136;53.810;8.886;2022-07-10T05:58:34;15.70;99.90
41395;DHT22;27136;53.810;8.886;2022-07-10T06:00:59;15.70;99.90
41395;DHT22;27136;53.810;8.886;2022-07-10T06:03:25;15.70;99.90
41395;DHT22;27136;53.810;8.886;2022-07-10T06:05:51;15.80;99.90
41395;DHT22;27136;53.810;8.886;2022-07-10T06:08:17;15.80;99.90
41395;DHT22;27136;53.810;8.886;2022-07-10T06:10:42;15.70;99.90
41395;DHT22;27136;53.810;8.886;2022-07-10T06:13:12;15.70;99.90
41395;DHT22;27136;53.810;8.886;2022-07-10T06:15:38;15.70;99.90
41395;DHT22;27136;53.810;8.886;2022-07-10T06:18:04;15.70;99.90
41395;DHT22;27136;53.810;8.886;2022-07-10T06:20:32;15.80;99.90
41395;DHT22;27136;53.810;8.886;2022-07-10T06:22:58;15.90;99.90
41395;DHT22;27136;53.810;8.886;2022-07-10T06:27:59;15.90;99.90
41395;DHT22;27136;53.810;8.886;2022-07-10T06:30:25;15.90;99.90
41395;DHT22;27136;53.810;8.886;2022-07-10T06:32:50;15.90;99.90
41395;DHT22;27136;53.810;8.886;2022-07-10T06:35:16;16.00;99.90
41395;DHT22;27136;53.810;8.886;2022-07-10T06:37:42;16.10;99.90
41395;DHT22;27136;53.810;8.886;2022-07-10T06:40:11;16.10;99.90
41395;DHT22;27136;53.810;8.886;2022-07-10T06:42:38;16.00;99.90
41395;DHT22;27136;53.810;8.886;2022-07-10T06:45:03;16.00;99.90
41395;DHT22;27136;53.810;8.886;2022-07-10T06:47:29;16.00;99.90
41395;DHT22;27136;53.810;8.886;2022-07-10T06:50:13;16.00;99.90
41395;DHT22;27136;53.810;8.886;2022-07-10T06:52:39;16.10;99.90
41395;DHT22;27136;53.810;8.886;2022-07-10T06:55:05;16.10;99.90
41395;DHT22;27136;53.810;8.886;2022-07-10T06:57:31;16.10;99.90
41395;DHT22;27136;53.810;8.886;2022-07-10T06:59:57;16.10;99.90
41395;DHT22;27136;53.810;8.886;2022-07-10T07:02:22;16.10;99.90
41395;DHT22;27136;53.810;8.886;2022-07-10T07:04:48;16.10;99.90
41395;DHT22;27136;53.810;8.886;2022-07-10T07:07:14;16.20;99.90
41395;DHT22;27136;53.810;8.886;2022-07-10T07:09:41;16.10;99.90
41395;DHT22;27136;53.810;8.886;2022-07-10T07:12:08;16.20;99.90
41395;DHT22;27136;53.810;8.886;2022-07-10T07:14:34;16.20;99.90
41395;DHT22;27136;53.810;8.886;2022-07-10T07:17:00;16.30;99.90
41395;DHT22;27136;53.810;8.886;2022-07-10T07:19:34;16.30;99.90
41395;DHT22;27136;53.810;8.886;2022-07-10T07:22:22;16.30;99.90
41395;DHT22;27136;53.810;8.886;2022-07-10T07:25:07;16.30;99.90
41395;DHT22;27136;53.810;8.886;2022-07-10T07:27:34;16.30;99.90
41395;DHT22;27136;53.810;8.886;2022-07-10T07:30:03;16.30;99.90
41395;DHT22;27136;53.810;8.886;2022-07-10T07:32:28;16.30;99.90
41395;DHT22;27136;53.810;8.886;2022-07-10T07:34:54;16.40;99.90
41395;DHT22;27136;53.810;8.886;2022-07-10T07:37:20;16.50;99.90
41395;DHT22;27136;53.810;8.886;2022-07-10T07:39:46;16.50;99.90
41395;DHT22;27136;53.810;8.886;2022-07-10T07:42:11;16.60;99.90
41395;DHT22;27136;53.810;8.886;2022-07-10T07:44:37;16.40;99.90
41395;DHT22;27136;53.810;8.886;2022-07-10T07:47:02;16.40;99.90
41395;DHT22;27136;53.810;8.886;2022-07-10T07:49:28;16.50;99.90
41395;DHT22;27136;53.810;8.886;2022-07-10T07:52:04;16.50;99.90
41395;DHT22;27136;53.810;8.886;2022-07-10T07:54:29;16.50;99.90
41395;DHT22;27136;53.810;8.886;2022-07-10T07:56:55;16.50;99.90
41395;DHT22;27136;53.810;8.886;2022-07-10T07:59:21;16.50;99.90
41395;DHT22;27136;53.810;8.886;2022-07-10T08:01:46;16.40;99.90
41395;DHT22;27136;53.810;8.886;2022-07-10T08:04:12;16.40;99.90
41395;DHT22;27136;53.810;8.886;2022-07-10T08:06:37;16.40;99.90
41395;DHT22;27136;53.810;8.886;2022-07-10T08:09:03;16.40;99.90
41395;DHT22;27136;53.810;8.886;2022-07-10T08:11:28;16.50;99.90
41395;DHT22;27136;53.810;8.886;2022-07-10T08:13:54;16.40;99.90
41395;DHT22;27136;53.810;8.886;2022-07-10T08:16:20;16.50;99.90
41395;DHT22;27136;53.810;8.886;2022-07-10T08:18:45;16.40;99.90
41395;DHT22;27136;53.810;8.886;2022-07-10T08:21:11;16.40;99.90
41395;DHT22;27136;53.810;8.886;2022-07-10T08:23:36;16.40;99.90
41395;DHT22;27136;53.810;8.886;2022-07-10T08:26:02;16.50;99.90
41395;DHT22;27136;53.810;8.886;2022-07-10T08:28:27;16.40;99.90
41395;DHT22;27136;53.810;8.886;2022-07-10T08:30:53;16.50;99.90
41395;DHT22;27136;53.810;8.886;2022-07-10T08:33:18;16.70;99.90
41395;DHT22;27136;53.810;8.886;2022-07-10T08:35:44;16.90;99.90
41395;DHT22;27136;53.810;8.886;2022-07-10T08:38:10;16.90;99.90
41395;DHT22;27136;53.810;8.886;2022-07-10T08:40:35;16.70;99.90
41395;DHT22;27136;53.810;8.886;2022-07-10T08:43:02;16.70;99.90
41395;DHT22;27136;53.810;8.886;2022-07-10T08:45:31;16.60;99.90
41395;DHT22;27136;53.810;8.886;2022-07-10T08:48:01;16.50;99.90
41395;DHT22;27136;53.810;8.886;2022-07-10T08:50:29;16.60;99.90
41395;DHT22;27136;53.810;8.886;2022-07-10T08:53:08;16.50;99.90
41395;DHT22;27136;53.810;8.886;2022-07-10T08:55:35;16.50;99.90
41395;DHT22;27136;53.810;8.886;2022-07-10T08:58:03;16.50;99.90
41395;DHT22;27136;53.810;8.886;2022-07-10T09:00:29;16.40;99.90
41395;DHT22;27136;53.810;8.886;2022-07-10T09:02:55;16.40;99.90
41395;DHT22;27136;53.810;8.886;2022-07-10T09:05:25;16.40;99.90
41395;DHT22;27136;53.810;8.886;2022-07-10T09:07:51;16.30;99.90
41395;DHT22;27136;53.810;8.886;2022-07-10T09:10:20;16.30;99.90
41395;DHT22;27136;53.810;8.886;2022-07-10T09:12:49;16.30;99.90
41395;DHT22;27136;53.810;8.886;2022-07-10T09:15:16;16.20;99.90
41395;DHT22;27136;53.810;8.886;2022-07-10T09:18:09;16.20;99.90
41395;DHT22;27136;53.810;8.886;2022-07-10T09:20:36;16.20;99.90
41395;DHT22;27136;53.810;8.886;2022-07-10T09:23:18;16.20;99.90
41395;DHT22;27136;53.810;8.886;2022-07-10T09:25:45;16.20;99.90
41395;DHT22;27136;53.810;8.886;2022-07-10T09:28:13;16.30;99.90
41395;DHT22;27136;53.810;8.886;2022-07-10T09:30:39;16.30;99.90
41395;DHT22;27136;53.810;8.886;2022-07-10T09:41:20;16.30;99.90
41395;DHT22;27136;53.810;8.886;2022-07-10T09:43:48;16.40;99.90
41395;DHT22;27136;53.810;8.886;2022-07-10T09:46:22;16.50;99.90
41395;DHT22;27136;53.810;8.886;2022-07-10T09:48:49;16.70;99.90
41395;DHT22;27136;53.810;8.886;2022-07-10T09:51:25;16.80;99.90
41395;DHT22;27136;53.810;8.886;2022-07-10T09:53:51;16.80;99.90
41395;DHT22;27136;53.810;8.886;2022-07-10T09:56:17;16.90;99.90
41395;DHT22;27136;53.810;8.886;2022-07-10T09:58:44;16.90;99.90
41395;DHT22;27136;53.810;8.886;2022-07-10T10:01:11;16.90;99.90
41395;DHT22;27136;53.810;8.886;2022-07-10T10:03:38;17.10;99.90
41395;DHT22;27136;53.810;8.886;2022-07-10T10:06:24;17.10;99.90
41395;DHT22;27136;53.810;8.886;2022-07-10T10:09:07;17.10;99.90
41395;DHT22;27136;53.810;8.886;2022-07-10T10:11:36;17.30;99.90
41395;DHT22;27136;53.810;8.886;2022-07-10T10:14:07;17.30;99.90
41395;DHT22;27136;53.810;8.886;2022-07-10T10:16:33;17.30;99.90
41395;DHT22;27136;53.810;8.886;2022-07-10T10:18:59;17.20;99.90
41395;DHT22;27136;53.810;8.886;2022-07-10T10:21:45;17.20;99.90
41395;DHT22;27136;53.810;8.886;2022-07-10T10:24:13;17.30;99.90
41395;DHT22;27136;53.810;8.886;2022-07-10T10:26:39;17.40;99.90
41395;DHT22;27136;53.810;8.886;2022-07-10T10:29:05;17.50;99.90
41395;DHT22;27136;53.810;8.886;2022-07-10T10:31:32;17.50;99.90
41395;DHT22;27136;53.810;8.886;2022-07-10T10:33:58;17.50;99.90
41395;DHT22;27136;53.810;8.886;2022-07-10T10:41:54;17.50;99.90
41395;DHT22;27136;53.810;8.886;2022-07-10T10:44:21;17.50;99.90
41395;DHT22;27136;53.810;8.886;2022-07-10T10:49:19;17.40;99.90
41395;DHT22;27136;53.810;8.886;2022-07-10T10:52:04;17.50;99.90
41395;DHT22;27136;53.810;8.886;2022-07-10T11:00:02;17.60;99.90
41395;DHT22;27136;53.810;8.886;2022-07-10T11:02:36;17.50;99.90
41395;DHT22;27136;53.810;8.886;2022-07-10T11:07:57;17.60;99.90
41395;DHT22;27136;53.810;8.886;2022-07-10T11:13:12;17.60;99.90
41395;DHT22;27136;53.810;8.886;2022-07-10T11:15:40;17.60;99.90
41395;DHT22;27136;53.810;8.886;2022-07-10T11:20:52;17.70;99.90
41395;DHT22;27136;53.810;8.886;2022-07-10T11:23:51;17.70;99.90
41395;DHT22;27136;53.810;8.886;2022-07-10T11:26:24;17.80;99.90
41395;DHT22;27136;53.810;8.886;2022-07-10T11:28:55;18.00;99.90
41395;DHT22;27136;53.810;8.886;2022-07-10T11:31:23;17.90;99.90
41395;DHT22;27136;53.810;8.886;2022-07-10T11:33:50;17.70;99.90
41395;DHT22;27136;53.810;8.886;2022-07-10T11:36:19;17.70;99.90
41395;DHT22;27136;53.810;8.886;2022-07-10T11:38:47;17.90;99.90
41395;DHT22;27136;53.810;8.886;2022-07-10T11:41:17;18.00;99.90
41395;DHT22;27136;53.810;8.886;2022-07-10T11:43:50;17.90;99.90
41395;DHT22;27136;53.810;8.886;2022-07-10T11:46:17;17.90;99.90
41395;DHT22;27136;53.810;8.886;2022-07-10T11:48:44;18.10;99.90
41395;DHT22;27136;53.810;8.886;2022-07-10T11:51:17;18.10;99.90
41395;DHT22;27136;53.810;8.886;2022-07-10T11:54:11;18.10;99.90
41395;DHT22;27136;53.810;8.886;2022-07-10T11:56:39;18.20;99.90
41395;DHT22;27136;53.810;8.886;2022-07-10T11:59:09;18.20;99.90
41395;DHT22;27136;53.810;8.886;2022-07-10T12:01:47;18.00;99.90
41395;DHT22;27136;53.810;8.886;2022-07-10T12:04:15;17.90;99.90
41395;DHT22;27136;53.810;8.886;2022-07-10T12:06:45;18.00;99.90
41395;DHT22;27136;53.810;8.886;2022-07-10T12:09:16;18.10;99.90
41395;DHT22;27136;53.810;8.886;2022-07-10T12:11:43;18.20;99.90
41395;DHT22;27136;53.810;8.886;2022-07-10T12:14:13;18.10;99.90
41395;DHT22;27136;53.810;8.886;2022-07-10T12:16:41;18.00;99.90
41395;DHT22;27136;53.810;8.886;2022-07-10T12:19:12;17.90;99.90
41395;DHT22;27136;53.810;8.886;2022-07-10T12:21:38;17.90;99.90
41395;DHT22;27136;53.810;8.886;2022-07-10T12:24:04;18.00;99.90
41395;DHT22;27136;53.810;8.886;2022-07-10T12:26:34;18.20;99.90
41395;DHT22;27136;53.810;8.886;2022-07-10T12:29:00;18.30;99.90
41395;DHT22;27136;53.810;8.886;2022-07-10T12:31:28;18.40;99.90
41395;DHT22;27136;53.810;8.886;2022-07-10T12:34:02;18.40;99.90
41395;DHT22;27136;53.810;8.886;2022-07-10T12:36:47;18.20;99.90
41395;DHT22;27136;53.810;8.886;2022-07-10T12:39:21;18.40;99.90
41395;DHT22;27136;53.810;8.886;2022-07-10T12:41:58;18.30;99.90
41395;DHT22;27136;53.810;8.886;2022-07-10T12:44:44;18.30;99.90
41395;DHT22;27136;53.810;8.886;2022-07-10T12:47:14;18.40;99.90
41395;DHT22;27136;53.810;8.886;2022-07-10T12:49:55;18.50;99.90
41395;DHT22;27136;53.810;8.886;2022-07-10T12:52:34;18.50;99.90
41395;DHT22;27136;53.810;8.886;2022-07-10T12:55:19;18.60;99.90
41395;DHT22;27136;53.810;8.886;2022-07-10T12:57:53;18.60;99.90
41395;DHT22;27136;53.810;8.886;2022-07-10T13:00:22;18.80;99.90
41395;DHT22;27136;53.810;8.886;2022-07-10T13:02:48;18.80;99.90
41395;DHT22;27136;53.810;8.886;2022-07-10T13:05:26;18.60;99.90
41395;DHT22;27136;53.810;8.886;2022-07-10T13:07:52;18.40;99.90
41395;DHT22;27136;53.810;8.886;2022-07-10T13:10:18;18.60;99.90
41395;DHT22;27136;53.810;8.886;2022-07-10T13:12:44;18.70;99.90
41395;DHT22;27136;53.810;8.886;2022-07-10T13:15:10;18.80;99.90
41395;DHT22;27136;53.810;8.886;2022-07-10T13:17:44;18.80;99.90
41395;DHT22;27136;53.810;8.886;2022-07-10T13:20:10;18.90;99.90
41395;DHT22;27136;53.810;8.886;2022-07-10T13:22:35;19.10;99.90
41395;DHT22;27136;53.810;8.886;2022-07-10T13:25:01;19.30;99.90
41395;DHT22;27136;53.810;8.886;2022-07-10T13:27:28;19.50;99.90
41395;DHT22;27136;53.810;8.886;2022-07-10T13:29:53;19.60;99.90
41395;DHT22;27136;53.810;8.886;2022-07-10T13:32:19;19.10;99.90
41395;DHT22;27136;53.810;8.886;2022-07-10T13:34:44;19.20;99.90
41395;DHT22;27136;53.810;8.886;2022-07-10T13:37:10;19.20;99.90
41395;DHT22;27136;53.810;8.886;2022-07-10T13:39:39;19.00;99.90
41395;DHT22;27136;53.810;8.886;2022-07-10T13:42:04;18.90;99.90
41395;DHT22;27136;53.810;8.886;2022-07-10T13:44:30;19.10;99.90
41395;DHT22;27136;53.810;8.886;2022-07-10T13:46:56;19.50;99.90
41395;DHT22;27136;53.810;8.886;2022-07-10T13:49:21;19.40;99.90
41395;DHT22;27136;53.810;8.886;2022-07-10T13:51:48;19.20;99.90
41395;DHT22;27136;53.810;8.886;2022-07-10T13:54:14;19.30;99.90
41395;DHT22;27136;53.810;8.886;2022-07-10T13:56:40;19.00;99.90
41395;DHT22;27136;53.810;8.886;2022-07-10T13:59:06;19.10;99.90
41395;DHT22;27136;53.810;8.886;2022-07-10T14:01:31;19.10;99.90
41395;DHT22;27136;53.810;8.886;2022-07-10T14:03:57;19.20;99.90
41395;DHT22;27136;53.810;8.886;2022-07-10T14:06:22;19.60;99.90
41395;DHT22;27136;53.810;8.886;2022-07-10T14:08:48;19.50;99.90
41395;DHT22;27136;53.810;8.886;2022-07-10T14:11:13;19.80;99.90
41395;DHT22;27136;53.810;8.886;2022-07-10T14:13:39;19.40;99.90
41395;DHT22;27136;53.810;8.886;2022-07-10T14:16:05;19.20;99.90
41395;DHT22;27136;53.810;8.886;2022-07-10T14:18:30;19.00;99.90
41395;DHT22;27136;53.810;8.886;2022-07-10T14:21:08;18.90;99.90
41395;DHT22;27136;53.810;8.886;2022-07-10T14:23:35;19.20;99.90
41395;DHT22;27136;53.810;8.886;2022-07-10T14:26:01;19.20;99.90
41395;DHT22;27136;53.810;8.886;2022-07-10T14:28:27;19.30;99.90
41395;DHT22;27136;53.810;8.886;2022-07-10T14:30:53;19.20;99.90
41395;DHT22;27136;53.810;8.886;2022-07-10T14:33:19;19.00;99.90
41395;DHT22;27136;53.810;8.886;2022-07-10T14:35:45;19.20;99.90
41395;DHT22;27136;53.810;8.886;2022-07-10T14:38:11;19.20;99.90
41395;DHT22;27136;53.810;8.886;2022-07-10T14:43:12;19.20;99.90
41395;DHT22;27136;53.810;8.886;2022-07-10T14:45:37;19.30;99.90
41395;DHT22;27136;53.810;8.886;2022-07-10T14:48:03;19.20;99.90
41395;DHT22;27136;53.810;8.886;2022-07-10T14:50:28;19.00;99.90
41395;DHT22;27136;53.810;8.886;2022-07-10T14:52:54;18.80;99.90
41395;DHT22;27136;53.810;8.886;2022-07-10T14:55:20;18.90;99.90
41395;DHT22;27136;53.810;8.886;2022-07-10T14:57:46;19.30;99.90
41395;DHT22;27136;53.810;8.886;2022-07-10T15:00:13;19.40;99.90
41395;DHT22;27136;53.810;8.886;2022-07-10T15:02:39;19.30;99.90
41395;DHT22;27136;53.810;8.886;2022-07-10T15:05:05;19.50;99.90
41395;DHT22;27136;53.810;8.886;2022-07-10T15:07:31;19.60;99.90
41395;DHT22;27136;53.810;8.886;2022-07-10T15:09:56;19.40;99.90
41395;DHT22;27136;53.810;8.886;2022-07-10T15:12:22;19.50;99.90
41395;DHT22;27136;53.810;8.886;2022-07-10T15:14:47;19.40;99.90
41395;DHT22;27136;53.810;8.886;2022-07-10T15:17:13;19.40;99.90
41395;DHT22;27136;53.810;8.886;2022-07-10T15:19:39;19.50;99.90
41395;DHT22;27136;53.810;8.886;2022-07-10T15:22:04;19.70;99.90
41395;DHT22;27136;53.810;8.886;2022-07-10T15:24:30;19.30;99.90
41395;DHT22;27136;53.810;8.886;2022-07-10T15:26:56;19.30;99.90
41395;DHT22;27136;53.810;8.886;2022-07-10T15:29:22;19.50;99.90
41395;DHT22;27136;53.810;8.886;2022-07-10T15:31:51;19.50;99.90
41395;DHT22;27136;53.810;8.886;2022-07-10T15:34:17;19.70;99.90
41395;DHT22;27136;53.810;8.886;2022-07-10T15:36:42;19.80;99.90
41395;DHT22;27136;53.810;8.886;2022-07-10T15:39:11;19.70;99.90
41395;DHT22;27136;53.810;8.886;2022-07-10T15:41:37;19.60;99.90
41395;DHT22;27136;53.810;8.886;2022-07-10T15:44:02;19.50;99.90
41395;DHT22;27136;53.810;8.886;2022-07-10T15:46:28;19.50;99.90
41395;DHT22;27136;53.810;8.886;2022-07-10T15:48:54;19.60;99.90
41395;DHT22;27136;53.810;8.886;2022-07-10T15:51:19;19.50;99.90
41395;DHT22;27136;53.810;8.886;2022-07-10T15:53:45;19.20;99.90
41395;DHT22;27136;53.810;8.886;2022-07-10T15:56:11;19.20;99.90
41395;DHT22;27136;53.810;8.886;2022-07-10T15:58:36;19.30;99.90
41395;DHT22;27136;53.810;8.886;2022-07-10T16:01:02;19.10;99.90
41395;DHT22;27136;53.810;8.886;2022-07-10T16:03:27;19.10;99.90
41395;DHT22;27136;53.810;8.886;2022-07-10T16:05:53;19.10;99.90